• Join FlightAware (Why Join?)
  • Login
  • US Flag 
07:28PM EDT


 

Airport Tracker/Info


-or-


 

Live Flight TrackerFlight Track Log ✈ SKW6335 ✈ 25-Apr-2013 ✈ KLAX - KSAN

Flight Track Log - Related Links

Times and Time Zones

All times are in EDT time to prevent confusion due to time zone crossing. See the SKW6335 flight status page for this flight to view local times or setup timezone preferences in your user account.

Time Position Orientation Groundspeed Altitude Reporting Facility
EDT Latitude Longitude Course Direction KTS MPH feet Rate Location/Type
05:56PM 33.9333 -118.4333 140° Southeast 150 173 1,800  Level Southern California TRACON
05:57PM 33.9000 -118.4667 220° Southwest 182 209 3,300 1,560 Climbing Southern California TRACON
05:58PM 33.8472 -118.4811 193° South 194 223 4,900 1,500 Climbing Los Angeles Center
05:59PM 33.6897 -118.1495 139° Southeast  Level Estimated
05:59PM 33.7992 -118.4675 167° South 201 231 6,300  Level Los Angeles Center
06:00PM 33.6266 -118.0847 139° Southeast  Level FlightAware Approximate
06:00PM 33.7383 -118.4364 157° South 202 232 8,200  Level Los Angeles Center
06:01PM 33.5635 -118.0201 140° Southeast  Level FlightAware Approximate
06:01PM 33.6922 -118.3900 140° Southeast 221 254 9,000  Level Los Angeles Center
06:02PM 33.6511 -118.3203 125° Southeast 258 297 9,000  Level Los Angeles Center
06:03PM 33.6092 -118.2475 125° Southeast 267 307 9,000  Level Los Angeles Center
06:04PM 33.5619 -118.1636 124° Southeast 261 300 9,000  Level Los Angeles Center
06:05PM 33.5225 -118.0942 124° Southeast 255 293 9,000  Level Los Angeles Center
06:06PM 33.4836 -118.0264 125° Southeast 250 288 9,000  Level Los Angeles Center
06:07PM 33.4450 -117.9581 124° Southeast 249 287 9,000  Level Los Angeles Center
06:08PM 33.4056 -117.8892 124° Southeast 249 287 9,000  Level Los Angeles Center
06:09PM 33.3833 -117.8333 115° Southeast 251 289 9,000  Level Southern California TRACON
06:09PM 33.3583 -117.8075 139° Southeast 251 289 9,000  Level Los Angeles Center
06:10PM 33.3200 -117.7400 124° Southeast 247 284 9,000  Level Los Angeles Center
06:11PM 33.2728 -117.6578 124° Southeast 249 287 9,000  Level Los Angeles Center
06:12PM 33.2261 -117.5989 133° Southeast 248 285 9,000  Level Los Angeles Center
06:13PM 33.2000 -117.5667 134° Southeast 251 289 9,000  Level Southern California TRACON
06:14PM 33.1333 -117.5333 157° South 253 291 9,000  Level Southern California TRACON
06:14PM 33.1125 -117.5008 127° Southeast 251 289 9,000  Level Los Angeles Center
06:15PM 33.0428 -117.4444 146° Southeast 252 290 9,000 -300 Level Los Angeles Center
06:17PM 32.9847 -117.3953 145° Southeast 254 292 8,500 -600 Descending Los Angeles Center
06:18PM 32.9256 -117.3386 141° Southeast 269 310 7,800 -720 Descending Los Angeles Center
06:19PM 32.8667 -117.2500 128° Southeast 263 303 7,000 -660 Descending Southern California TRACON
06:20PM 32.8167 -117.2000 140° Southeast 236 272 6,400 -540 Descending Southern California TRACON
06:21PM 32.7833 -117.1333 121° Southeast 217 250 6,000 -300 Descending Southern California TRACON
06:22PM 32.7778 -117.0814 97° East 213 245 5,900 -60 Descending Los Angeles Center
06:23PM 32.7594 -117.0017 105° East 209 241 5,900 -240 Level Los Angeles Center
06:24PM 32.7500 -116.9333 99° East 220 253 5,500 -540 Descending Southern California TRACON
06:25PM 32.6833 -116.9167 168° South 224 258 4,900 -960 Descending Southern California TRACON
06:26PM 32.6833 -116.9833 270° West 212 244 3,600 -960 Descending Southern California TRACON
06:27PM 32.7000 -117.0500 287° West 197 227 3,000 -600 Descending Southern California TRACON